Time;durP1;ratioP1;P1;durP2;ratioP2;P2;SDS_P1;SDS_P2;PMS_P1;PMS_P2;Temp;Humidity;BMP_temperature;BMP_pressure;BME280_temperature;BME280_humidity;BME280_pressure;Samples;Min_cycle;Max_cycle;Signal;HPM_P1;HPM_P2
2023/03/25 00:01:32;;;;;;;3.30;2.50;;;15.70;99.90;;;;;;5044643;28;20089;-67
2023/03/25 00:03:59;;;;;;;2.13;1.90;;;15.60;99.90;;;;;;5045426;28;20044;-67
2023/03/25 00:06:29;;;;;;;3.50;2.30;;;15.70;99.90;;;;;;5047328;28;20452;-67
2023/03/25 00:08:55;;;;;;;3.45;2.60;;;15.70;99.90;;;;;;5047223;28;20381;-66
2023/03/25 00:11:21;;;;;;;3.58;2.40;;;15.70;99.90;;;;;;5050688;28;20068;-67
2023/03/25 00:13:47;;;;;;;2.35;2.15;;;15.60;99.90;;;;;;5048045;28;20147;-66
2023/03/25 00:16:14;;;;;;;3.70;2.25;;;15.50;99.90;;;;;;5029016;28;20048;-66
2023/03/25 00:18:39;;;;;;;3.88;2.60;;;15.40;99.90;;;;;;5047782;28;20072;-67
2023/03/25 00:21:10;;;;;;;2.92;2.30;;;15.40;99.90;;;;;;5042644;28;20449;-66
2023/03/25 00:23:38;;;;;;;2.92;2.15;;;15.40;99.90;;;;;;5049441;28;20087;-67
2023/03/25 00:26:04;;;;;;;2.40;2.20;;;15.50;99.90;;;;;;5041117;28;20147;-67
2023/03/25 00:28:32;;;;;;;2.17;1.73;;;15.50;99.90;;;;;;5029597;28;20041;-67
2023/03/25 00:31:04;;;;;;;1.60;1.50;;;15.60;99.90;;;;;;5047258;28;20469;-67
2023/03/25 00:33:30;;;;;;;2.97;2.10;;;15.60;99.90;;;;;;5050100;28;20074;-67
2023/03/25 00:35:59;;;;;;;2.38;2.10;;;15.70;99.90;;;;;;5044811;28;20036;-67
2023/03/25 00:38:33;;;;;;;1.13;1.02;;;15.60;99.90;;;;;;5050799;28;20439;-66
2023/03/25 00:41:09;;;;;;;0.73;0.50;;;15.60;99.90;;;;;;5034767;28;21250;-66
2023/03/25 00:43:35;;;;;;;0.47;0.47;;;15.70;99.90;;;;;;5048619;28;20076;-66
2023/03/25 00:46:01;;;;;;;0.40;0.40;;;15.80;99.90;;;;;;5048191;28;20116;-66
2023/03/25 00:48:26;;;;;;;0.50;0.30;;;15.80;99.90;;;;;;5051594;28;20045;-66
2023/03/25 00:50:52;;;;;;;0.40;0.40;;;15.80;99.90;;;;;;5050872;28;20043;-66
2023/03/25 00:53:18;;;;;;;0.75;0.60;;;15.80;99.90;;;;;;5055068;28;20412;-66
2023/03/25 00:55:43;;;;;;;1.33;0.60;;;15.70;99.90;;;;;;5047622;28;20032;-67
2023/03/25 00:58:09;;;;;;;1.50;0.52;;;15.70;99.90;;;;;;5045705;28;20032;-66
2023/03/25 01:00:35;;;;;;;0.93;0.43;;;15.70;99.90;;;;;;5037147;28;20079;-67
2023/03/25 01:03:02;;;;;;;0.50;0.50;;;15.70;99.90;;;;;;5045624;28;20100;-66
2023/03/25 01:05:29;;;;;;;0.75;0.55;;;15.60;99.90;;;;;;5051493;28;20027;-66
2023/03/25 01:07:55;;;;;;;0.70;0.70;;;15.60;99.90;;;;;;5054321;28;20052;-66
2023/03/25 01:10:21;;;;;;;0.75;0.75;;;15.50;99.90;;;;;;5053947;28;20063;-67
2023/03/25 01:12:47;;;;;;;0.60;0.60;;;15.40;99.90;;;;;;5053650;28;20041;-66
2023/03/25 01:15:13;;;;;;;1.05;0.95;;;15.50;99.90;;;;;;5054072;28;20044;-66
2023/03/25 01:17:39;;;;;;;0.75;0.75;;;15.40;99.90;;;;;;5053213;28;20037;-66
2023/03/25 01:20:05;;;;;;;1.20;1.00;;;15.30;99.90;;;;;;5046166;28;20476;-66
2023/03/25 01:22:31;;;;;;;1.23;1.00;;;15.30;99.90;;;;;;5055996;28;20090;-66
2023/03/25 01:24:56;;;;;;;2.20;1.88;;;15.30;99.90;;;;;;5054532;28;20044;-66
2023/03/25 01:27:23;;;;;;;2.58;1.30;;;15.30;99.90;;;;;;5055245;28;20036;-66
2023/03/25 01:29:49;;;;;;;2.40;1.70;;;15.30;99.90;;;;;;5046811;28;20058;-66
2023/03/25 01:32:15;;;;;;;2.05;1.77;;;15.20;99.90;;;;;;5050400;28;20417;-66
2023/03/25 01:34:41;;;;;;;2.38;1.90;;;15.20;99.90;;;;;;5047397;28;20712;-66
2023/03/25 01:37:10;;;;;;;1.75;1.65;;;15.00;99.90;;;;;;5058282;28;20067;-66
2023/03/25 01:39:36;;;;;;;1.83;1.73;;;15.00;99.90;;;;;;5057055;28;20083;-66
2023/03/25 01:42:02;;;;;;;3.47;1.63;;;15.10;99.90;;;;;;5054229;28;20036;-66
2023/03/25 01:44:28;;;;;;;1.58;1.40;;;15.10;99.90;;;;;;5054260;28;20591;-66
2023/03/25 01:46:55;;;;;;;1.52;1.42;;;15.20;99.90;;;;;;5029396;28;20032;-67
2023/03/25 01:49:37;;;;;;;1.77;1.60;;;15.20;99.90;;;;;;5048497;28;20159;-66
2023/03/25 01:52:23;;;;;;;2.60;1.65;;;15.30;99.90;;;;;;5040469;28;20099;-66
2023/03/25 01:54:53;;;;;;;1.40;1.30;;;15.20;99.90;;;;;;5051388;28;20025;-66
2023/03/25 01:57:22;;;;;;;1.52;1.25;;;15.20;99.90;;;;;;5060868;28;20040;-66
2023/03/25 01:59:49;;;;;;;1.55;1.45;;;15.10;99.90;;;;;;5057268;28;20032;-66
2023/03/25 02:02:17;;;;;;;1.20;1.10;;;14.90;99.90;;;;;;5044001;28;20041;-66
2023/03/25 02:04:57;;;;;;;2.55;1.15;;;15.00;99.90;;;;;;5053655;28;20048;-66
2023/03/25 02:07:29;;;;;;;1.40;1.27;;;15.00;99.90;;;;;;5035128;28;20049;-66
2023/03/25 02:10:01;;;;;;;;;;;14.90;99.90;;;;;;5051962;28;20110;-66
2023/03/25 02:12:27;;;;;;;1.10;0.80;;;14.70;99.90;;;;;;5057791;28;20304;-66
2023/03/25 02:14:54;;;;;;;1.30;0.85;;;14.50;99.90;;;;;;5043870;28;20577;-69
2023/03/25 02:17:47;;;;;;;1.17;0.88;;;14.50;99.90;;;;;;5049212;28;20029;-68
2023/03/25 02:20:43;;;;;;;0.70;0.70;;;14.40;99.90;;;;;;5055234;28;20048;-69
2023/03/25 02:23:15;;;;;;;0.60;0.60;;;14.20;99.90;;;;;;5050187;28;20068;-69
2023/03/25 02:25:54;;;;;;;1.00;0.80;;;14.10;99.90;;;;;;5053555;28;20059;-69
2023/03/25 02:28:35;;;;;;;2.80;0.70;;;14.10;99.90;;;;;;5054382;28;20048;-70
2023/03/25 02:31:27;;;;;;;0.70;0.70;;;14.00;99.90;;;;;;5046313;28;20660;-69
2023/03/25 02:34:16;;;;;;;0.80;0.80;;;14.00;99.90;;;;;;5052875;28;20443;-69
2023/03/25 02:37:08;;;;;;;1.35;1.25;;;14.00;99.90;;;;;;5054165;28;20086;-69
2023/03/25 02:40:05;;;;;;;1.20;1.10;;;14.00;99.90;;;;;;5051277;28;20783;-69
2023/03/25 02:42:42;;;;;;;1.73;1.48;;;13.90;99.90;;;;;;5050633;28;21388;-70
2023/03/25 02:45:29;;;;;;;1.67;1.58;;;14.00;99.90;;;;;;5054164;28;20104;-69
2023/03/25 02:48:01;;;;;;;1.38;1.27;;;14.00;99.90;;;;;;5050485;28;20083;-69
2023/03/25 02:50:31;;;;;;;1.98;1.48;;;13.90;99.90;;;;;;5054573;28;20117;-69
2023/03/25 02:53:03;;;;;;;1.92;1.73;;;13.90;99.90;;;;;;5053636;28;20128;-69
2023/03/25 02:55:30;;;;;;;1.80;1.60;;;13.90;99.90;;;;;;5047889;28;20043;-69
2023/03/25 02:57:58;;;;;;;2.47;1.58;;;13.90;99.90;;;;;;5029606;28;20294;-69
2023/03/25 03:00:27;;;;;;;2.83;1.70;;;13.90;99.90;;;;;;5028814;28;20133;-68
2023/03/25 03:02:58;;;;;;;1.65;1.50;;;13.90;99.90;;;;;;5030118;28;20479;-69
2023/03/25 03:05:37;;;;;;;2.45;1.73;;;13.90;99.90;;;;;;5036907;28;20037;-69
2023/03/25 03:08:18;;;;;;;2.00;1.80;;;13.90;99.90;;;;;;5032357;28;20037;-69
2023/03/25 03:11:06;;;;;;;1.67;1.58;;;13.90;99.90;;;;;;5028844;28;20305;-68
2023/03/25 03:14:19;;;;;;;2.38;1.77;;;13.90;99.90;;;;;;5038538;28;20041;-68
2023/03/25 03:17:03;;;;;;;1.85;1.67;;;13.90;99.90;;;;;;4994411;28;20057;-69
2023/03/25 03:19:38;;;;;;;2.08;1.42;;;13.90;99.90;;;;;;5037435;28;20098;-69
2023/03/25 03:22:33;;;;;;;1.25;1.15;;;13.90;99.90;;;;;;5031932;28;20045;-69
2023/03/25 03:25:24;;;;;;;1.92;1.75;;;14.00;99.90;;;;;;5026830;28;20037;-69
2023/03/25 03:28:09;;;;;;;3.72;1.85;;;14.00;99.90;;;;;;5036384;28;20061;-68
2023/03/25 03:30:38;;;;;;;2.50;1.90;;;14.00;99.90;;;;;;5030888;28;20045;-69
2023/03/25 03:33:24;;;;;;;2.60;1.63;;;13.80;99.90;;;;;;5031937;28;20057;-69
2023/03/25 03:36:00;;;;;;;2.85;1.77;;;13.70;99.90;;;;;;5036907;28;20044;-69
2023/03/25 03:38:31;;;;;;;1.90;1.80;;;13.70;99.90;;;;;;5038942;28;20645;-69
2023/03/25 03:41:00;;;;;;;1.92;1.80;;;13.50;99.90;;;;;;5034670;28;20718;-69
2023/03/25 03:43:31;;;;;;;1.90;1.80;;;13.40;99.90;;;;;;5036701;28;20126;-70
2023/03/25 03:46:04;;;;;;;2.40;2.20;;;13.40;99.90;;;;;;5033477;28;20040;-69
2023/03/25 03:48:37;;;;;;;;;;;13.40;99.90;;;;;;5034297;28;20131;-69
2023/03/25 03:51:18;;;;;;;2.08;1.90;;;13.40;99.90;;;;;;5029233;28;20051;-70
2023/03/25 03:54:07;;;;;;;3.30;2.50;;;13.40;99.90;;;;;;5032738;28;20479;-69
2023/03/25 03:57:07;;;;;;;3.00;2.70;;;13.50;99.90;;;;;;5018146;28;20075;-69
2023/03/25 03:59:41;;;;;;;2.28;2.08;;;13.60;99.90;;;;;;5029602;28;20030;-69
2023/03/25 04:02:15;;;;;;;4.75;4.25;;;13.60;99.90;;;;;;5033951;28;20131;-70
2023/03/25 04:04:41;;;;;;;4.18;3.40;;;13.60;99.90;;;;;;5024616;28;20157;-70
2023/03/25 04:07:18;;;;;;;2.95;2.65;;;13.60;99.90;;;;;;5031557;28;20052;-70
2023/03/25 04:10:01;;;;;;;5.85;5.18;;;13.70;99.90;;;;;;5035920;28;20040;-69
2023/03/25 04:12:29;;;;;;;4.55;3.67;;;13.70;99.90;;;;;;5035400;28;20453;-69
2023/03/25 04:14:59;;;;;;;2.05;1.95;;;13.70;99.90;;;;;;5032113;28;20087;-69
2023/03/25 04:17:28;;;;;;;1.95;1.80;;;13.70;99.90;;;;;;5032071;28;20100;-69
2023/03/25 04:19:55;;;;;;;2.08;1.83;;;13.60;99.90;;;;;;5033359;28;20033;-69
2023/03/25 04:22:20;;;;;;;2.25;2.08;;;13.50;99.90;;;;;;5014747;28;20040;-69
2023/03/25 04:24:48;;;;;;;2.08;1.88;;;13.40;99.90;;;;;;5031810;28;20036;-69
2023/03/25 04:27:15;;;;;;;2.90;2.05;;;13.40;99.90;;;;;;5032652;28;20116;-69
2023/03/25 04:29:42;;;;;;;1.77;1.67;;;13.40;99.90;;;;;;5034560;28;20152;-69
2023/03/25 04:32:12;;;;;;;1.65;1.55;;;13.30;99.90;;;;;;5031763;28;20048;-69
2023/03/25 04:34:38;;;;;;;2.40;2.15;;;13.20;99.90;;;;;;5031388;28;20625;-69
2023/03/25 04:37:04;;;;;;;2.53;1.90;;;13.20;99.90;;;;;;5034686;28;20060;-69
2023/03/25 04:39:31;;;;;;;2.47;2.03;;;13.20;99.90;;;;;;5028755;28;20040;-69
2023/03/25 04:42:00;;;;;;;2.28;1.90;;;13.10;99.90;;;;;;5037304;28;20171;-69
2023/03/25 04:44:27;;;;;;;1.17;1.08;;;13.10;99.90;;;;;;5022952;28;20056;-69
2023/03/25 04:46:54;;;;;;;3.85;1.63;;;13.00;99.90;;;;;;5034675;28;20452;-67
2023/03/25 04:49:22;;;;;;;1.38;1.20;;;13.00;99.90;;;;;;5022947;28;20052;-67
2023/03/25 04:51:52;;;;;;;1.20;1.10;;;13.10;99.90;;;;;;5039652;28;20033;-67
2023/03/25 04:54:19;;;;;;;1.20;1.00;;;13.20;99.90;;;;;;5038701;28;21146;-67
2023/03/25 04:56:48;;;;;;;1.95;1.10;;;13.20;99.90;;;;;;5043415;28;20072;-66
2023/03/25 04:59:14;;;;;;;0.80;0.80;;;13.20;99.90;;;;;;5055518;28;20091;-66
2023/03/25 05:01:44;;;;;;;1.70;0.80;;;13.20;99.90;;;;;;5053650;28;20734;-66
2023/03/25 05:04:12;;;;;;;0.82;0.70;;;13.30;99.90;;;;;;5061087;28;20036;-67
2023/03/25 05:06:50;;;;;;;2.72;0.80;;;13.30;99.90;;;;;;5052024;28;20041;-66
2023/03/25 05:09:18;;;;;;;0.98;0.80;;;13.40;99.90;;;;;;5058992;28;20565;-67
2023/03/25 05:11:45;;;;;;;1.85;1.17;;;13.50;99.90;;;;;;5048329;28;20037;-66
2023/03/25 05:14:12;;;;;;;0.77;0.75;;;13.60;99.90;;;;;;5051922;28;20039;-66
2023/03/25 05:16:39;;;;;;;0.93;0.77;;;13.60;99.90;;;;;;5051037;28;20173;-66
2023/03/25 05:19:05;;;;;;;0.93;0.60;;;13.60;99.90;;;;;;5059614;28;20120;-66
2023/03/25 05:21:37;;;;;;;2.65;0.95;;;13.50;99.90;;;;;;5058438;28;20119;-67
2023/03/25 05:24:09;;;;;;;1.10;1.00;;;13.50;99.90;;;;;;5064056;28;20359;-66
2023/03/25 05:26:36;;;;;;;0.82;0.70;;;13.50;99.90;;;;;;5051925;28;20028;-67
2023/03/25 05:29:13;;;;;;;3.00;0.95;;;13.50;99.90;;;;;;5049819;28;20082;-67
2023/03/25 05:31:40;;;;;;;1.08;0.98;;;13.60;99.90;;;;;;5048572;28;20048;-67
2023/03/25 05:34:07;;;;;;;2.88;0.95;;;13.60;99.90;;;;;;5055754;28;20097;-67
2023/03/25 05:36:33;;;;;;;1.98;0.90;;;13.60;99.90;;;;;;5058142;28;20049;-67
2023/03/25 05:38:59;;;;;;;1.15;0.90;;;13.50;99.90;;;;;;5056598;28;20064;-67
2023/03/25 05:41:31;;;;;;;2.10;0.60;;;13.50;99.90;;;;;;5058847;28;20500;-67
2023/03/25 05:43:59;;;;;;;1.10;0.50;;;13.40;99.90;;;;;;5058660;28;20211;-67
2023/03/25 05:46:27;;;;;;;1.52;0.80;;;13.30;99.90;;;;;;5049414;28;20036;-67
2023/03/25 05:48:53;;;;;;;0.68;0.57;;;13.30;99.90;;;;;;5061591;28;20060;-67
2023/03/25 05:51:25;;;;;;;0.98;0.43;;;13.30;99.90;;;;;;5056225;28;20404;-67
2023/03/25 05:53:51;;;;;;;2.20;0.70;;;13.30;99.90;;;;;;5060263;28;20145;-67
2023/03/25 05:56:21;;;;;;;0.88;0.50;;;13.20;99.90;;;;;;5059123;28;20064;-66
2023/03/25 05:58:48;;;;;;;0.50;0.50;;;13.20;99.90;;;;;;5061112;28;20037;-66
2023/03/25 06:01:16;;;;;;;0.73;0.52;;;13.20;99.90;;;;;;5052100;28;20157;-66
2023/03/25 06:03:43;;;;;;;0.30;0.30;;;13.10;99.90;;;;;;5055695;28;20044;-67
2023/03/25 06:06:12;;;;;;;1.50;0.77;;;13.10;99.90;;;;;;5055698;28;20173;-67
2023/03/25 06:08:41;;;;;;;2.10;0.57;;;13.10;99.90;;;;;;5050136;28;20049;-67
2023/03/25 06:11:08;;;;;;;1.00;0.70;;;13.00;99.90;;;;;;5055692;28;20032;-66
2023/03/25 06:13:37;;;;;;;0.63;0.43;;;13.10;99.90;;;;;;5056398;28;20067;-66
2023/03/25 06:16:04;;;;;;;0.93;0.60;;;13.10;99.90;;;;;;5053548;28;20119;-66
2023/03/25 06:18:31;;;;;;;0.45;0.45;;;13.10;99.90;;;;;;5057481;28;20051;-66
2023/03/25 06:20:57;;;;;;;0.90;0.60;;;13.10;99.90;;;;;;5050012;28;20067;-66
2023/03/25 06:23:23;;;;;;;0.80;0.60;;;13.10;99.90;;;;;;5054829;28;20064;-67
2023/03/25 06:25:50;;;;;;;1.75;0.82;;;13.10;99.90;;;;;;5054771;28;20040;-68
2023/03/25 06:28:17;;;;;;;1.00;0.65;;;13.10;99.90;;;;;;5060548;28;20115;-66
2023/03/25 06:30:47;;;;;;;0.80;0.73;;;13.10;99.90;;;;;;5052222;28;20044;-66
2023/03/25 06:33:14;;;;;;;1.27;0.60;;;13.10;99.90;;;;;;5058669;28;20098;-67
2023/03/25 06:35:41;;;;;;;0.77;0.55;;;13.20;99.90;;;;;;5048941;28;20023;-68
2023/03/25 06:38:08;;;;;;;1.48;0.70;;;13.30;99.90;;;;;;5050853;28;20051;-67
2023/03/25 06:40:36;;;;;;;1.00;0.90;;;13.30;99.90;;;;;;5048086;28;20040;-68
2023/03/25 06:43:05;;;;;;;3.25;0.70;;;13.30;99.90;;;;;;5054854;28;20031;-69
2023/03/25 06:45:32;;;;;;;1.20;0.70;;;13.30;99.90;;;;;;5055857;28;20948;-70
2023/03/25 06:47:59;;;;;;;3.20;0.80;;;13.50;99.90;;;;;;5054454;28;20669;-69
2023/03/25 06:50:25;;;;;;;1.15;0.65;;;13.60;99.90;;;;;;5052114;28;20080;-69
2023/03/25 06:52:50;;;;;;;2.00;1.10;;;13.70;99.90;;;;;;5048846;28;20033;-68
2023/03/25 06:55:16;;;;;;;8.38;7.78;;;13.80;99.90;;;;;;5050686;28;20396;-69
2023/03/25 06:57:42;;;;;;;3.05;1.05;;;13.90;99.90;;;;;;5059831;28;20072;-68
2023/03/25 07:00:10;;;;;;;0.93;0.65;;;13.90;99.90;;;;;;5057769;28;20094;-68
2023/03/25 07:02:36;;;;;;;1.42;0.68;;;13.80;99.90;;;;;;5050108;28;20032;-68
2023/03/25 07:05:03;;;;;;;0.50;0.50;;;13.80;99.90;;;;;;5057213;28;20033;-68
2023/03/25 07:07:29;;;;;;;1.13;1.02;;;13.80;99.90;;;;;;5049255;28;20043;-68
2023/03/25 07:09:55;;;;;;;1.88;0.98;;;13.70;99.90;;;;;;5055101;28;20036;-68
2023/03/25 07:12:24;;;;;;;2.13;0.75;;;13.80;99.90;;;;;;5054181;28;20028;-68
2023/03/25 07:14:53;;;;;;;2.70;0.98;;;13.90;99.90;;;;;;5054152;28;20032;-68
2023/03/25 07:17:20;;;;;;;2.83;0.82;;;14.00;99.90;;;;;;5055003;28;20127;-68
2023/03/25 07:19:45;;;;;;;0.65;0.60;;;14.00;99.90;;;;;;5052232;28;20094;-70
2023/03/25 07:22:11;;;;;;;1.45;0.80;;;14.00;99.90;;;;;;5049586;28;20127;-69
2023/03/25 07:24:37;;;;;;;1.10;0.65;;;14.00;99.90;;;;;;5048178;28;20044;-67
2023/03/25 07:27:02;;;;;;;1.13;0.90;;;14.00;99.90;;;;;;5052413;28;20559;-69
2023/03/25 07:29:28;;;;;;;1.48;1.00;;;14.00;99.90;;;;;;5043416;28;20056;-69
2023/03/25 07:31:54;;;;;;;1.30;0.70;;;13.90;99.90;;;;;;5042477;28;20413;-68
2023/03/25 07:34:19;;;;;;;1.98;1.20;;;13.80;99.90;;;;;;5051773;28;20616;-70
2023/03/25 07:36:45;;;;;;;1.33;0.55;;;13.80;99.90;;;;;;5050396;28;20024;-68
2023/03/25 07:39:11;;;;;;;2.13;0.80;;;13.80;99.90;;;;;;5050783;28;20036;-69
2023/03/25 07:41:36;;;;;;;1.48;0.90;;;13.80;99.90;;;;;;5046489;28;20040;-69
2023/03/25 07:44:02;;;;;;;1.45;0.93;;;13.90;99.90;;;;;;5046350;28;21329;-69
2023/03/25 07:46:28;;;;;;;1.63;0.77;;;14.00;99.90;;;;;;5050572;28;20085;-68
2023/03/25 07:48:53;;;;;;;0.60;0.60;;;13.90;99.90;;;;;;5053552;28;20199;-69
2023/03/25 07:51:19;;;;;;;4.80;3.28;;;13.90;99.90;;;;;;5051392;28;20456;-69
2023/03/25 07:53:45;;;;;;;3.47;1.67;;;14.00;99.90;;;;;;5055145;28;20036;-68
2023/03/25 07:56:12;;;;;;;2.15;1.02;;;14.10;99.90;;;;;;5055105;28;20125;-69
2023/03/25 07:58:38;;;;;;;2.72;0.90;;;14.10;99.90;;;;;;5048370;28;20517;-67
2023/03/25 08:01:04;;;;;;;1.70;1.20;;;14.30;99.90;;;;;;5051750;28;20045;-68
2023/03/25 08:03:32;;;;;;;2.15;1.90;;;14.30;99.90;;;;;;5035194;28;20192;-68
2023/03/25 08:06:00;;;;;;;1.73;1.02;;;14.30;99.90;;;;;;5045100;28;20143;-69
2023/03/25 08:08:28;;;;;;;3.05;1.27;;;14.40;99.90;;;;;;5042240;28;20043;-70
2023/03/25 08:10:55;;;;;;;1.42;0.82;;;14.40;99.90;;;;;;5045412;28;20921;-67
2023/03/25 08:13:21;;;;;;;2.13;0.80;;;14.60;99.90;;;;;;5042851;28;20049;-67
2023/03/25 08:15:46;;;;;;;2.72;1.00;;;14.60;99.90;;;;;;5033632;28;20040;-67
2023/03/25 08:18:12;;;;;;;1.83;1.00;;;14.60;99.90;;;;;;5050367;28;20047;-67
2023/03/25 08:20:38;;;;;;;1.85;1.40;;;14.60;99.90;;;;;;5045415;28;20059;-67
2023/03/25 08:23:09;;;;;;;3.67;1.92;;;14.70;99.90;;;;;;5042779;28;20041;-68
2023/03/25 08:25:39;;;;;;;2.03;0.80;;;14.90;99.90;;;;;;5041329;28;20043;-69
2023/03/25 08:28:05;;;;;;;2.15;1.33;;;15.10;99.90;;;;;;5052753;28;20123;-67
2023/03/25 08:30:38;;;;;;;2.95;0.82;;;15.30;99.90;;;;;;5040001;28;20035;-67
2023/03/25 08:33:08;;;;;;;7.28;1.00;;;15.40;99.90;;;;;;5045113;28;20045;-67
2023/03/25 08:35:35;;;;;;;2.03;1.20;;;15.20;99.90;;;;;;5040532;28;20028;-77
2023/03/25 08:38:04;;;;;;;7.55;1.15;;;15.30;99.90;;;;;;5047695;28;20044;-69
2023/03/25 08:40:30;;;;;;;4.32;1.60;;;15.30;99.90;;;;;;5047401;28;20075;-73
2023/03/25 08:42:56;;;;;;;31.75;20.00;;;15.50;99.90;;;;;;5045973;28;20028;-69
2023/03/25 08:45:22;;;;;;;12.70;4.93;;;15.80;99.90;;;;;;5038127;28;20226;-67
2023/03/25 08:47:47;;;;;;;4.13;2.00;;;16.00;99.90;;;;;;5038581;28;20068;-68
2023/03/25 08:50:13;;;;;;;1.63;1.50;;;16.30;99.90;;;;;;5045091;28;20029;-67
2023/03/25 08:52:40;;;;;;;2.70;1.80;;;16.50;99.90;;;;;;5040148;28;20040;-67
2023/03/25 08:55:08;;;;;;;7.88;6.60;;;16.20;99.90;;;;;;5050267;28;20099;-67
2023/03/25 08:57:36;;;;;;;9.98;2.80;;;16.10;99.90;;;;;;5043205;28;20052;-68
2023/03/25 09:00:11;;;;;;;2.15;1.00;;;16.10;99.90;;;;;;5031416;28;20039;-67
2023/03/25 09:02:37;;;;;;;4.00;3.50;;;16.10;99.90;;;;;;5045114;28;20037;-67
2023/03/25 09:05:03;;;;;;;4.25;2.20;;;16.10;99.90;;;;;;5042212;28;20770;-68
2023/03/25 09:07:29;;;;;;;2.30;0.70;;;16.00;99.90;;;;;;5046844;28;20048;-68
2023/03/25 09:09:55;;;;;;;2.28;0.80;;;16.00;99.90;;;;;;5037511;28;20512;-68
2023/03/25 09:12:21;;;;;;;1.75;0.60;;;16.00;99.90;;;;;;5038978;28;20040;-68
2023/03/25 09:14:46;;;;;;;56.38;43.92;;;15.90;99.90;;;;;;5046257;28;20033;-68
2023/03/25 09:17:12;;;;;;;1.58;1.48;;;16.00;99.90;;;;;;5043500;28;20032;-66
2023/03/25 09:19:38;;;;;;;1.65;1.20;;;16.20;99.90;;;;;;5047237;28;20041;-68
2023/03/25 09:22:04;;;;;;;3.70;0.98;;;16.30;99.90;;;;;;5045632;28;20040;-68
2023/03/25 09:24:33;;;;;;;2.83;1.13;;;16.40;99.90;;;;;;5040773;28;20055;-68
2023/03/25 09:27:00;;;;;;;1.73;0.60;;;16.60;99.90;;;;;;5048830;28;20714;-69
2023/03/25 09:29:26;;;;;;;2.28;0.70;;;16.70;99.90;;;;;;5051028;28;20566;-68
2023/03/25 09:31:52;;;;;;;3.03;0.88;;;16.80;99.90;;;;;;5054947;28;20051;-69
2023/03/25 09:34:18;;;;;;;1.92;0.80;;;16.80;99.90;;;;;;5054867;28;20044;-67
2023/03/25 09:36:46;;;;;;;1.30;0.70;;;16.70;99.90;;;;;;5053782;28;20064;-67
2023/03/25 09:39:12;;;;;;;3.95;1.83;;;16.60;99.90;;;;;;5053667;28;20032;-66
2023/03/25 09:42:12;;;;;;;2.10;0.80;;;16.60;99.90;;;;;;5051994;28;20036;-67
2023/03/25 09:45:03;;;;;;;1.25;0.70;;;16.70;99.90;;;;;;5048641;28;20446;-67
2023/03/25 09:47:32;;;;;;;3.53;0.70;;;16.80;99.90;;;;;;5042423;28;20041;-67
2023/03/25 09:50:01;;;;;;;1.02;0.73;;;16.80;99.90;;;;;;5052223;28;20048;-67
2023/03/25 09:52:37;;;;;;;2.35;0.80;;;16.60;99.90;;;;;;5047116;28;20043;-66
2023/03/25 09:55:07;;;;;;;1.50;0.77;;;16.50;99.90;;;;;;5045108;28;20055;-67
2023/03/25 09:57:47;;;;;;;1.05;0.65;;;16.40;99.90;;;;;;5049097;28;20037;-67
2023/03/25 10:00:20;;;;;;;0.95;0.70;;;16.50;99.90;;;;;;5049514;28;20717;-66
2023/03/25 10:02:51;;;;;;;;;;;16.50;99.90;;;;;;5041042;28;20044;-67
2023/03/25 10:05:17;;;;;;;2.58;1.10;;;16.40;99.90;;;;;;5048784;28;19916;-67
2023/03/25 10:08:01;;;;;;;1.35;0.68;;;16.40;99.90;;;;;;5043943;28;20069;-68
2023/03/25 10:10:44;;;;;;;6.85;1.10;;;16.40;99.90;;;;;;5049732;28;20040;-68
2023/03/25 10:13:37;;;;;;;1.92;0.85;;;16.30;99.90;;;;;;5045506;28;20071;-67
2023/03/25 10:16:05;;;;;;;2.00;0.82;;;16.10;99.90;;;;;;5046868;28;20045;-68
2023/03/25 10:18:46;;;;;;;3.40;0.80;;;16.10;99.90;;;;;;5049918;28;20025;-68
2023/03/25 10:21:26;;;;;;;1.90;0.82;;;16.10;99.90;;;;;;5052926;28;20032;-68
2023/03/25 10:24:15;;;;;;;1.65;0.90;;;16.10;99.90;;;;;;5052806;28;20033;-68
2023/03/25 10:26:54;;;;;;;1.40;0.80;;;16.30;99.90;;;;;;5048347;28;20033;-68
2023/03/25 10:29:26;;;;;;;2.20;1.08;;;16.60;99.90;;;;;;5045465;28;21193;-67
2023/03/25 10:31:55;;;;;;;2.72;0.95;;;16.70;99.90;;;;;;5042346;28;20040;-65
2023/03/25 10:34:30;;;;;;;2.35;0.90;;;16.50;99.90;;;;;;5046699;28;20229;-68
2023/03/25 10:36:59;;;;;;;2.40;0.75;;;16.20;99.90;;;;;;5049647;28;20036;-69
2023/03/25 10:39:33;;;;;;;1.55;1.08;;;16.00;99.90;;;;;;5050763;28;20021;-69
2023/03/25 10:42:21;;;;;;;3.72;1.20;;;16.00;99.90;;;;;;5052186;28;20149;-67
2023/03/25 10:44:47;;;;;;;2.13;1.45;;;16.30;99.90;;;;;;5045347;28;20118;-68
2023/03/25 10:47:18;;;;;;;1.92;1.20;;;16.40;99.90;;;;;;5053169;28;20111;-68
2023/03/25 10:49:47;;;;;;;3.70;1.27;;;16.50;99.90;;;;;;5052241;28;20233;-69
2023/03/25 10:52:14;;;;;;;1.45;1.20;;;16.60;99.90;;;;;;5049884;28;20043;-67
2023/03/25 10:54:44;;;;;;;3.47;1.38;;;16.70;99.90;;;;;;5047156;28;20052;-69
2023/03/25 10:57:20;;;;;;;4.72;1.13;;;16.70;99.90;;;;;;5056942;28;20043;-68
2023/03/25 11:00:05;;;;;;;4.32;2.58;;;16.60;99.90;;;;;;5037241;28;20041;-69
2023/03/25 11:02:32;;;;;;;3.72;1.23;;;16.50;99.90;;;;;;5048835;28;20152;-68
2023/03/25 11:05:03;;;;;;;2.05;1.00;;;16.70;99.90;;;;;;5046033;28;20036;-68
2023/03/25 11:07:40;;;;;;;1.60;1.17;;;16.80;99.90;;;;;;5048603;28;20733;-68
2023/03/25 11:10:18;;;;;;;2.22;1.10;;;16.70;99.90;;;;;;5048300;28;20496;-70
2023/03/25 11:12:46;;;;;;;4.32;1.17;;;16.50;99.90;;;;;;5049429;28;20045;-67
2023/03/25 11:15:16;;;;;;;2.83;1.70;;;16.40;99.90;;;;;;5045972;28;20029;-67
2023/03/25 11:17:45;;;;;;;2.55;1.33;;;16.20;99.90;;;;;;5037245;28;20040;-68
2023/03/25 11:20:25;;;;;;;2.25;1.10;;;16.20;99.90;;;;;;5038964;28;20029;-68
2023/03/25 11:22:53;;;;;;;2.35;1.05;;;16.00;99.90;;;;;;5042237;28;20024;-68
2023/03/25 11:25:24;;;;;;;2.53;0.77;;;15.90;99.90;;;;;;5037043;28;20024;-68
2023/03/25 11:27:57;;;;;;;2.92;1.00;;;15.90;99.90;;;;;;5041221;28;20041;-67
2023/03/25 11:30:24;;;;;;;1.63;0.98;;;16.00;99.90;;;;;;5050322;28;20044;-67
2023/03/25 11:33:01;;;;;;;1.63;0.90;;;16.00;99.90;;;;;;5044257;28;20143;-66
2023/03/25 11:35:30;;;;;;;1.92;1.17;;;16.10;99.90;;;;;;5047721;28;21404;-67
2023/03/25 11:38:31;;;;;;;2.35;1.02;;;15.90;99.90;;;;;;5040788;28;20052;-66
2023/03/25 11:40:58;;;;;;;1.42;0.80;;;15.80;99.90;;;;;;5039617;28;20124;-67
2023/03/25 11:43:35;;;;;;;1.63;0.70;;;15.70;99.90;;;;;;5043256;28;20124;-66
2023/03/25 11:46:12;;;;;;;2.58;0.85;;;15.50;99.90;;;;;;5046463;28;20274;-67
2023/03/25 11:48:41;;;;;;;7.22;1.00;;;15.30;99.90;;;;;;5043436;28;20072;-65
2023/03/25 11:51:19;;;;;;;1.15;0.65;;;15.30;99.90;;;;;;5046676;28;20037;-67
2023/03/25 11:53:48;;;;;;;1.00;0.63;;;15.30;99.90;;;;;;5046525;28;20178;-66
2023/03/25 11:56:22;;;;;;;2.10;0.80;;;15.30;99.80;;;;;;5050894;28;20036;-66
2023/03/25 11:58:50;;;;;;;1.25;0.70;;;15.30;99.90;;;;;;5046196;28;20033;-67
2023/03/25 12:01:35;;;;;;;2.13;0.77;;;15.30;99.90;;;;;;5046341;28;20044;-66
2023/03/25 12:04:12;;;;;;;1.00;0.50;;;15.30;99.20;;;;;;5050142;28;20044;-67
2023/03/25 12:06:51;;;;;;;1.67;0.70;;;15.30;99.70;;;;;;5044205;28;20029;-67
2023/03/25 12:09:16;;;;;;;1.92;0.68;;;15.30;99.00;;;;;;5053154;28;20051;-67
2023/03/25 12:11:55;;;;;;;1.27;0.70;;;15.20;99.60;;;;;;5053317;28;25051;-65
2023/03/25 12:14:40;;;;;;;1.15;0.70;;;15.20;99.10;;;;;;5052197;28;20048;-69
2023/03/25 12:17:36;;;;;;;2.50;0.68;;;15.30;99.90;;;;;;5053266;28;20652;-67
2023/03/25 12:20:26;;;;;;;2.85;0.60;;;15.40;99.10;;;;;;5049932;28;20037;-66
2023/03/25 12:23:02;;;;;;;1.35;0.60;;;15.40;98.50;;;;;;5045332;28;20037;-67
2023/03/25 12:25:40;;;;;;;0.88;0.65;;;15.40;99.30;;;;;;5048921;28;20118;-68
2023/03/25 12:28:06;;;;;;;1.00;0.70;;;15.30;99.30;;;;;;5051982;28;20070;-69
2023/03/25 12:30:47;;;;;;;1.70;0.80;;;15.20;99.20;;;;;;5051692;28;20665;-68
2023/03/25 12:33:25;;;;;;;2.83;0.68;;;15.30;99.40;;;;;;5052611;28;20068;-69
2023/03/25 12:35:56;;;;;;;1.88;0.70;;;15.20;99.30;;;;;;5058044;28;20035;-68
2023/03/25 12:38:35;;;;;;;2.63;0.70;;;15.30;99.30;;;;;;5049249;28;20076;-68
2023/03/25 12:41:24;;;;;;;1.77;0.60;;;15.30;99.10;;;;;;5057017;28;20103;-69
2023/03/25 12:44:10;;;;;;;2.28;0.93;;;15.10;99.00;;;;;;5058436;28;20415;-68
2023/03/25 12:46:51;;;;;;;2.78;0.80;;;15.20;99.80;;;;;;5051781;28;20044;-69
2023/03/25 12:49:20;;;;;;;1.90;0.52;;;15.40;99.90;;;;;;5054968;28;20458;-68
2023/03/25 12:51:55;;;;;;;1.75;0.70;;;15.60;99.30;;;;;;5039798;28;20219;-67
2023/03/25 12:54:30;;;;;;;1.95;0.50;;;15.80;99.90;;;;;;5049481;28;20142;-67
2023/03/25 12:57:14;;;;;;;2.30;0.80;;;16.00;99.90;;;;;;5050654;28;20654;-66
2023/03/25 13:00:06;;;;;;;2.10;0.90;;;16.10;98.00;;;;;;5049881;28;20047;-67
2023/03/25 13:02:57;;;;;;;1.63;0.70;;;16.00;98.20;;;;;;5050906;28;20424;-68
2023/03/25 13:05:53;;;;;;;0.88;0.43;;;16.10;99.00;;;;;;5045549;28;20039;-69
2023/03/25 13:08:28;;;;;;;1.23;0.70;;;16.20;98.40;;;;;;5046257;28;20492;-68
2023/03/25 13:11:07;;;;;;;1.33;0.47;;;16.40;96.80;;;;;;5041258;28;20063;-68